Huvudsida
METAR-TAF:

METAR-TAF

Flygplatser :

Claremore, Oklahoma, USA

latitud: 36-17-40N, longitud: 095-28-47W, höjd: 221 m

Aktuellt väderrapport

Denna rapport gjordes för 15 minuter sedan, klockan 09:55 UTC
Vind 4 kt från sydost
Temperatur 21°C
Fuktighet 83%
Tryck 1014 hPa
Sikt: 16.1 km
Klar himmel

METAR: KGCM 270955Z AUTO 13004KT 10SM CLR 21/18 A2993 RMK AO2

Tid: 05:10 (10:10 UTC)


TAF: saknas

Aktuella väderrapporter och prognoser från 4000 flygplatser (METAR- och TAF-rapporter).

De tillgängliga stationerna syns som gula och röda prickar på kartan.

För musen över prickarna för att se namnen på stationerna.

Klicka sedan för att få väderrapporter och prognoser.

För att ändra kartan: Klicka på de gröna knapparna med ett svart kors på för att zooma in; den gröna knappen med ett streck på för att zooma ut; eller på de gröna pilarna för angränsande kartor.


METAR-TAF: